createdAt,value
2023-05-11T00:00:31.462Z,55.97
2023-05-11T00:03:03.157Z,55.73
2023-05-11T00:05:34.887Z,55.81
2023-05-11T00:08:06.600Z,55.88
2023-05-11T00:10:38.178Z,55.14
2023-05-11T00:13:09.765Z,55.27
2023-05-11T00:15:44.268Z,54.74
2023-05-11T00:18:15.902Z,54.98
2023-05-11T00:20:47.563Z,54.55
2023-05-11T00:23:19.143Z,54.47
2023-05-11T00:25:54.306Z,53.64
2023-05-11T00:28:26.014Z,54.29
2023-05-11T00:30:58.336Z,55.88
2023-05-11T00:33:29.978Z,55.25
2023-05-11T00:36:04.088Z,54.48
2023-05-11T00:38:38.845Z,55.00
2023-05-11T00:41:10.474Z,55.73
2023-05-11T00:43:42.116Z,55.11
2023-05-11T00:46:13.755Z,55.92
2023-05-11T00:48:45.512Z,55.66
2023-05-11T00:51:17.867Z,55.35
2023-05-11T00:53:53.001Z,55.14
2023-05-11T00:56:24.641Z,54.34
2023-05-11T00:58:56.281Z,53.62
2023-05-11T01:01:28.006Z,54.04
2023-05-11T01:03:59.622Z,54.68
2023-05-11T01:06:46.634Z,53.75
2023-05-11T01:09:52.860Z,54.18
2023-05-11T01:12:56.913Z,52.64
2023-05-11T01:15:57.132Z,52.60
2023-05-11T01:19:12.706Z,52.73
2023-05-11T01:21:46.062Z,52.50
2023-05-11T01:24:45.535Z,52.39
2023-05-11T01:27:41.543Z,51.91
2023-05-11T01:30:25.597Z,52.05
2023-05-11T01:33:08.148Z,51.67
2023-05-11T01:35:54.983Z,52.94
2023-05-11T01:38:31.366Z,53.06
2023-05-11T01:41:13.455Z,54.11
2023-05-11T01:43:52.998Z,54.69
2023-05-11T01:46:33.096Z,54.36
2023-05-11T01:49:07.573Z,55.27
2023-05-11T01:51:42.084Z,56.44
2023-05-11T01:54:14.265Z,55.55
2023-05-11T01:56:46.187Z,55.60
2023-05-11T01:59:19.167Z,56.28
2023-05-11T02:01:51.087Z,56.64
2023-05-11T02:04:24.678Z,56.33
2023-05-11T02:06:58.982Z,57.25
2023-05-11T02:09:32.869Z,57.21
2023-05-11T02:12:06.498Z,57.33
2023-05-11T02:14:39.270Z,58.03
2023-05-11T02:17:11.268Z,57.53
2023-05-11T02:19:45.261Z,58.37
2023-05-11T02:22:17.871Z,58.17
2023-05-11T02:24:50.232Z,58.39
2023-05-11T02:27:21.840Z,58.66
2023-05-11T02:29:53.712Z,59.03
2023-05-11T02:32:28.507Z,59.14
2023-05-11T02:35:20.913Z,59.16
2023-05-11T02:37:57.975Z,59.52
2023-05-11T02:40:39.542Z,59.23
2023-05-11T02:43:14.773Z,59.36
2023-05-11T02:45:48.010Z,59.60
2023-05-11T02:48:41.841Z,60.37
2023-05-11T02:51:17.045Z,60.15
2023-05-11T02:53:49.990Z,59.84
2023-05-11T02:56:23.713Z,60.82
2023-05-11T02:58:56.352Z,61.37
2023-05-11T03:01:30.574Z,60.92
2023-05-11T03:04:06.297Z,61.35
2023-05-11T03:06:38.023Z,60.97
2023-05-11T03:09:10.329Z,61.27
2023-05-11T03:11:43.252Z,61.39
2023-05-11T03:14:18.274Z,60.97
2023-05-11T03:16:51.323Z,61.24
2023-05-11T03:19:23.831Z,60.69
2023-05-11T03:21:59.928Z,60.65
2023-05-11T03:24:32.001Z,61.02
2023-05-11T03:27:05.627Z,61.35
2023-05-11T03:29:40.104Z,60.98
2023-05-11T03:32:12.771Z,60.89
2023-05-11T03:34:44.389Z,61.11
2023-05-11T03:37:21.196Z,61.62
2023-05-11T03:39:57.998Z,61.57
2023-05-11T03:42:33.008Z,61.99
2023-05-11T03:45:07.959Z,61.45
2023-05-11T03:47:43.876Z,62.46
2023-05-11T03:50:16.857Z,61.09
2023-05-11T03:52:49.452Z,62.00
2023-05-11T03:55:21.470Z,61.80
2023-05-11T03:57:53.224Z,62.24
2023-05-11T04:00:24.930Z,61.38
2023-05-11T04:02:56.731Z,62.48
2023-05-11T04:05:28.348Z,62.58
2023-05-11T04:08:00.788Z,61.53
2023-05-11T04:10:32.846Z,62.02
2023-05-11T04:13:06.757Z,61.38
2023-05-11T04:15:38.369Z,61.55
2023-05-11T04:18:10.031Z,62.29
2023-05-11T04:20:41.617Z,63.01
2023-05-11T04:23:16.529Z,62.94
2023-05-11T04:25:54.533Z,62.70
2023-05-11T04:28:28.073Z,62.56
2023-05-11T04:30:59.746Z,62.11
2023-05-11T04:33:31.532Z,62.62
2023-05-11T04:36:03.475Z,62.12
2023-05-11T04:38:35.041Z,62.30
2023-05-11T04:41:09.718Z,61.55
2023-05-11T04:43:41.384Z,62.18
2023-05-11T04:46:15.922Z,62.49
2023-05-11T04:48:47.485Z,62.12
2023-05-11T04:51:19.066Z,63.00
2023-05-11T04:53:50.632Z,62.19
2023-05-11T04:56:22.855Z,61.80
2023-05-11T04:58:54.453Z,62.25
2023-05-11T05:01:26.116Z,62.00
2023-05-11T05:03:57.712Z,61.95
2023-05-11T05:06:29.360Z,62.36
2023-05-11T05:09:01.024Z,62.01
2023-05-11T05:11:32.675Z,62.47
2023-05-11T05:14:04.366Z,61.72
2023-05-11T05:16:36.064Z,62.37
2023-05-11T05:19:12.840Z,62.37
2023-05-11T05:21:44.497Z,62.22
2023-05-11T05:24:16.070Z,62.61
2023-05-11T05:26:47.730Z,63.02
2023-05-11T05:29:19.404Z,62.50
2023-05-11T05:31:51.006Z,62.16
2023-05-11T05:34:22.642Z,61.64
2023-05-11T05:36:54.240Z,61.82
2023-05-11T05:39:25.857Z,61.46
2023-05-11T05:41:57.481Z,62.86
2023-05-11T05:44:29.187Z,61.58
2023-05-11T05:47:00.842Z,61.76
2023-05-11T05:49:32.452Z,61.09
2023-05-11T05:52:04.330Z,61.00
2023-05-11T05:54:38.496Z,62.27
2023-05-11T05:57:10.117Z,60.82
2023-05-11T05:59:41.762Z,60.38
2023-05-11T06:02:13.648Z,59.56
2023-05-11T06:04:48.240Z,59.90
2023-05-11T06:07:19.790Z,59.86
2023-05-11T06:09:51.404Z,60.39
2023-05-11T06:12:22.996Z,60.06
2023-05-11T06:14:54.540Z,60.53
2023-05-11T06:17:29.209Z,60.00
2023-05-11T06:20:00.815Z,59.59
2023-05-11T06:22:32.691Z,59.96
2023-05-11T06:25:05.277Z,59.75
2023-05-11T06:27:36.847Z,58.30
2023-05-11T06:30:09.169Z,59.38
2023-05-11T06:32:41.974Z,59.56
2023-05-11T06:35:13.567Z,59.74
2023-05-11T06:37:45.128Z,60.12
2023-05-11T06:40:16.894Z,59.52
2023-05-11T06:42:48.736Z,61.45
2023-05-11T06:45:20.437Z,60.67
2023-05-11T06:47:52.139Z,60.64
2023-05-11T06:50:25.787Z,62.68
2023-05-11T06:52:58.951Z,62.23
2023-05-11T06:55:30.592Z,61.97
2023-05-11T06:58:02.176Z,62.42
2023-05-11T07:00:34.138Z,61.24
2023-05-11T07:03:06.463Z,61.30
2023-05-11T07:05:39.117Z,61.84
2023-05-11T07:08:10.761Z,61.48
2023-05-11T07:10:42.463Z,60.98
2023-05-11T07:13:14.461Z,60.67
2023-05-11T07:15:46.118Z,61.35
2023-05-11T07:18:20.110Z,60.97
2023-05-11T07:20:52.191Z,60.95
2023-05-11T07:23:23.736Z,60.62
2023-05-11T07:25:57.928Z,60.28
2023-05-11T07:28:29.585Z,60.58
2023-05-11T07:31:01.504Z,59.45
2023-05-11T07:33:34.730Z,60.15
2023-05-11T07:36:07.521Z,59.91
2023-05-11T07:38:39.612Z,59.65
2023-05-11T07:41:12.699Z,59.44
2023-05-11T07:43:47.606Z,58.21
2023-05-11T07:46:19.309Z,57.17
2023-05-11T07:48:57.484Z,57.90
2023-05-11T07:51:35.835Z,57.75
2023-05-11T07:54:07.730Z,57.53
2023-05-11T07:56:39.454Z,56.07
2023-05-11T07:59:11.229Z,54.59
2023-05-11T08:01:42.836Z,52.85
2023-05-11T08:04:14.501Z,52.25
2023-05-11T08:06:46.182Z,52.43
2023-05-11T08:09:17.998Z,52.52
2023-05-11T08:11:54.084Z,50.54
2023-05-11T08:14:28.825Z,49.33
2023-05-11T08:17:00.480Z,48.66
2023-05-11T08:19:34.309Z,47.33
2023-05-11T08:22:06.191Z,48.45
2023-05-11T08:24:37.765Z,48.00
2023-05-11T08:27:09.368Z,49.46
2023-05-11T08:29:41.110Z,46.77
2023-05-11T08:32:12.901Z,45.69
2023-05-11T08:34:47.064Z,45.91
2023-05-11T08:37:19.103Z,43.60
2023-05-11T08:39:51.360Z,43.69
2023-05-11T08:42:25.215Z,42.83
2023-05-11T08:44:58.114Z,43.13
2023-05-11T08:47:30.187Z,44.76
2023-05-11T08:50:02.124Z,44.17
2023-05-11T08:52:34.532Z,41.66
2023-05-11T08:55:08.206Z,40.14
2023-05-11T08:57:44.189Z,37.51
2023-05-11T09:00:18.830Z,40.19
2023-05-11T09:02:51.840Z,38.07
2023-05-11T09:05:25.045Z,37.40
2023-05-11T09:08:02.450Z,38.98
2023-05-11T09:10:38.122Z,45.15
2023-05-11T09:13:10.263Z,48.36
2023-05-11T09:15:41.994Z,47.46
2023-05-11T09:18:13.764Z,52.13
2023-05-11T09:20:47.966Z,55.29
2023-05-11T09:23:26.680Z,50.34
2023-05-11T09:25:58.293Z,50.43
2023-05-11T09:28:36.143Z,51.42
2023-05-11T09:31:07.889Z,54.56
2023-05-11T09:33:42.664Z,53.08
2023-05-11T09:36:24.367Z,54.14
2023-05-11T09:39:03.888Z,56.02
2023-05-11T09:41:35.985Z,56.61
2023-05-11T09:44:15.760Z,57.55
2023-05-11T09:46:47.658Z,55.92
2023-05-11T09:49:29.525Z,52.87
2023-05-11T09:52:01.656Z,51.01
2023-05-11T09:54:47.819Z,52.96
2023-05-11T09:57:37.370Z,52.21
2023-05-11T10:00:15.071Z,53.77
2023-05-11T10:03:08.518Z,55.65
2023-05-11T10:05:40.232Z,59.57
2023-05-11T10:08:12.027Z,59.39
2023-05-11T10:10:43.670Z,59.78
2023-05-11T10:13:15.404Z,58.69
2023-05-11T10:15:52.664Z,58.71
2023-05-11T10:18:24.473Z,60.06
2023-05-11T10:20:58.449Z,58.82
2023-05-11T10:23:34.085Z,57.27
2023-05-11T10:26:06.282Z,53.86
2023-05-11T10:28:38.146Z,56.75
2023-05-11T10:31:10.834Z,56.98
2023-05-11T10:33:43.288Z,54.21
2023-05-11T10:36:19.257Z,55.65
2023-05-11T10:38:51.484Z,56.21
2023-05-11T10:41:40.270Z,53.40
2023-05-11T10:44:38.762Z,51.49
2023-05-11T10:47:43.930Z,54.83
2023-05-11T10:50:33.572Z,56.00
2023-05-11T10:53:20.540Z,52.71
2023-05-11T10:56:38.486Z,50.57
2023-05-11T10:59:37.631Z,49.48
2023-05-11T11:02:10.230Z,52.75
2023-05-11T11:04:52.284Z,49.25
2023-05-11T11:07:23.926Z,47.92
2023-05-11T11:10:07.114Z,50.11
2023-05-11T11:12:38.856Z,48.30
2023-05-11T11:15:10.680Z,48.67
2023-05-11T11:17:43.007Z,49.23
2023-05-11T11:20:54.456Z,50.31
2023-05-11T11:23:49.168Z,49.41
2023-05-11T11:26:47.461Z,49.61
2023-05-11T11:29:21.175Z,49.36
2023-05-11T11:31:52.787Z,48.49
2023-05-11T11:34:27.549Z,48.08
2023-05-11T11:37:00.992Z,53.27
2023-05-11T11:39:41.986Z,49.92
2023-05-11T11:42:35.655Z,47.96
2023-05-11T11:45:27.774Z,48.07
2023-05-11T11:48:07.240Z,51.59
2023-05-11T11:50:47.963Z,52.82
2023-05-11T11:53:38.188Z,48.66
2023-05-11T11:56:16.031Z,51.47
2023-05-11T11:58:53.383Z,52.73
2023-05-11T12:01:29.257Z,52.54
2023-05-11T12:04:37.493Z,53.28
2023-05-11T12:07:10.255Z,54.38
2023-05-11T12:09:45.162Z,55.89
2023-05-11T12:12:18.629Z,55.64
2023-05-11T12:14:50.374Z,54.36
2023-05-11T12:17:29.348Z,52.43
2023-05-11T12:20:16.818Z,53.39
2023-05-11T12:22:49.474Z,54.05
2023-05-11T12:25:21.861Z,55.98
2023-05-11T12:28:02.024Z,56.61
2023-05-11T12:30:34.667Z,57.64
2023-05-11T12:33:08.225Z,57.48
2023-05-11T12:35:40.574Z,57.17
2023-05-11T12:38:12.281Z,56.29
2023-05-11T12:40:52.776Z,59.18
2023-05-11T12:43:26.428Z,59.13
2023-05-11T12:45:58.092Z,59.25
2023-05-11T12:48:32.860Z,57.80
2023-05-11T12:51:04.716Z,59.85
2023-05-11T12:53:37.083Z,58.75
2023-05-11T12:56:08.895Z,58.87
2023-05-11T12:58:41.770Z,58.71
2023-05-11T13:01:13.440Z,59.11
2023-05-11T13:03:47.557Z,57.57
2023-05-11T13:06:20.541Z,57.70
2023-05-11T13:08:52.144Z,57.82
2023-05-11T13:11:26.835Z,58.97
2023-05-11T13:13:59.763Z,61.39
2023-05-11T13:19:09.241Z,60.28
2023-05-11T13:21:41.030Z,57.29
2023-05-11T13:24:21.218Z,57.03
2023-05-11T13:26:54.661Z,56.92
2023-05-11T13:29:28.905Z,56.51
2023-05-11T13:32:00.662Z,56.54
2023-05-11T13:34:32.403Z,57.87
2023-05-11T13:37:04.236Z,59.27
2023-05-11T13:39:35.857Z,57.83
2023-05-11T13:42:07.591Z,56.46
2023-05-11T13:44:39.335Z,56.33
2023-05-11T13:47:11.559Z,55.67
2023-05-11T13:49:43.317Z,56.88
2023-05-11T13:52:15.230Z,55.98
2023-05-11T13:54:46.780Z,53.60
2023-05-11T13:57:18.970Z,53.71
2023-05-11T13:59:50.991Z,55.05
2023-05-11T14:02:22.704Z,52.19
2023-05-11T14:04:54.321Z,55.14
2023-05-11T14:07:38.999Z,51.74
2023-05-11T14:10:18.611Z,54.83
2023-05-11T14:12:50.519Z,56.73
2023-05-11T14:15:22.192Z,57.21
2023-05-11T14:17:53.891Z,52.71
2023-05-11T14:20:25.842Z,52.11
2023-05-11T14:22:58.572Z,51.36
2023-05-11T14:25:32.066Z,53.50
2023-05-11T14:28:03.790Z,53.74
2023-05-11T14:30:38.202Z,58.67
2023-05-11T14:33:10.113Z,58.80
2023-05-11T14:35:41.821Z,51.74
2023-05-11T14:38:13.445Z,51.58
2023-05-11T14:40:45.153Z,49.64
2023-05-11T14:43:17.196Z,44.83
2023-05-11T14:45:50.918Z,45.05
2023-05-11T14:48:23.007Z,47.72
2023-05-11T14:50:54.989Z,49.30
2023-05-11T14:53:26.733Z,48.14
2023-05-11T14:55:59.171Z,50.35
2023-05-11T14:58:30.775Z,54.57
2023-05-11T15:01:03.882Z,53.49
2023-05-11T15:03:37.305Z,53.54
2023-05-11T15:06:09.010Z,51.58
2023-05-11T15:08:40.593Z,52.26
2023-05-11T15:11:12.268Z,53.78
2023-05-11T15:13:44.005Z,54.09
2023-05-11T15:16:15.709Z,52.23
2023-05-11T15:18:50.697Z,52.63
2023-05-11T15:21:22.336Z,52.50
2023-05-11T15:23:54.392Z,56.02
2023-05-11T15:26:26.031Z,52.88
2023-05-11T15:28:57.650Z,52.16
2023-05-11T15:31:29.330Z,52.18
2023-05-11T15:34:04.120Z,53.06
2023-05-11T15:36:36.335Z,50.54
2023-05-11T15:39:09.073Z,50.63
2023-05-11T15:41:40.773Z,50.26
2023-05-11T15:44:13.492Z,52.70
2023-05-11T15:46:45.123Z,54.43
2023-05-11T15:49:17.023Z,56.66
2023-05-11T15:51:48.561Z,51.76
2023-05-11T15:54:20.215Z,50.82
2023-05-11T15:56:52.470Z,48.07
2023-05-11T15:59:24.137Z,46.06
2023-05-11T16:01:58.128Z,47.72
2023-05-11T16:04:32.366Z,48.99
2023-05-11T16:07:04.445Z,54.75
2023-05-11T16:09:36.643Z,51.76
2023-05-11T16:12:08.463Z,51.16
2023-05-11T16:14:40.122Z,48.94
2023-05-11T16:17:14.189Z,49.31
2023-05-11T16:19:45.985Z,49.29
2023-05-11T16:22:19.925Z,49.44
2023-05-11T16:24:51.550Z,51.21
2023-05-11T16:27:28.044Z,49.90
2023-05-11T16:30:08.513Z,49.21
2023-05-11T16:32:51.190Z,50.55
2023-05-11T16:35:25.124Z,50.84
2023-05-11T16:37:59.684Z,51.40
2023-05-11T16:40:31.415Z,52.58
2023-05-11T16:43:03.435Z,53.36
2023-05-11T16:45:34.995Z,55.51
2023-05-11T16:48:06.984Z,55.86
2023-05-11T16:50:38.884Z,56.86
2023-05-11T16:53:10.684Z,56.42
2023-05-11T16:55:42.387Z,58.42
2023-05-11T16:58:14.364Z,59.08
2023-05-11T17:00:45.983Z,60.00
2023-05-11T17:03:19.022Z,60.84
2023-05-11T17:05:53.924Z,60.85
2023-05-11T17:08:27.717Z,61.41
2023-05-11T17:10:59.530Z,61.46
2023-05-11T17:13:31.803Z,61.46
2023-05-11T17:16:03.620Z,61.57
2023-05-11T17:18:37.470Z,61.17
2023-05-11T17:21:09.729Z,60.91
2023-05-11T17:23:44.094Z,60.80
2023-05-11T17:26:15.740Z,62.06
2023-05-11T17:28:47.492Z,61.58
2023-05-11T17:31:19.205Z,61.27
2023-05-11T17:33:51.134Z,61.95
2023-05-11T17:36:22.753Z,61.85
2023-05-11T17:38:54.397Z,62.39
2023-05-11T17:41:28.097Z,62.00
2023-05-11T17:43:59.733Z,62.35
2023-05-11T17:46:31.493Z,61.44
2023-05-11T17:49:03.200Z,62.55
2023-05-11T17:51:37.937Z,62.42
2023-05-11T17:54:09.738Z,61.64
2023-05-11T17:56:41.316Z,61.69
2023-05-11T17:59:13.015Z,61.71
2023-05-11T18:01:44.780Z,61.52
2023-05-11T18:04:16.502Z,62.01
2023-05-11T18:06:51.720Z,62.42
2023-05-11T18:09:23.339Z,62.32
2023-05-11T18:11:54.935Z,61.93
2023-05-11T18:14:26.827Z,62.05
2023-05-11T18:16:58.470Z,62.38
2023-05-11T18:19:30.594Z,62.19
2023-05-11T18:22:02.225Z,62.13
2023-05-11T18:24:33.841Z,62.90
2023-05-11T18:27:05.809Z,62.11
2023-05-11T18:29:37.559Z,62.71
2023-05-11T18:32:09.234Z,63.05
2023-05-11T18:34:42.542Z,63.04
2023-05-11T18:37:17.386Z,62.88
2023-05-11T18:39:57.702Z,62.74
2023-05-11T18:42:29.550Z,62.63
2023-05-11T18:45:01.608Z,62.35
2023-05-11T18:47:37.573Z,62.80
2023-05-11T18:50:09.967Z,63.32
2023-05-11T18:52:41.763Z,62.84
2023-05-11T18:55:13.506Z,62.38
2023-05-11T18:57:46.866Z,62.21
2023-05-11T19:00:19.592Z,63.04
2023-05-11T19:02:52.091Z,62.87
2023-05-11T19:05:24.035Z,62.51
2023-05-11T19:07:55.876Z,63.08
2023-05-11T19:10:27.821Z,62.88
2023-05-11T19:12:59.649Z,63.76
2023-05-11T19:15:33.515Z,62.79
2023-05-11T19:18:05.439Z,62.86
2023-05-11T19:20:39.207Z,62.50
2023-05-11T19:23:11.099Z,63.52
2023-05-11T19:25:42.828Z,63.27
2023-05-11T19:28:14.433Z,63.05
2023-05-11T19:30:45.989Z,63.65
2023-05-11T19:33:18.024Z,63.22
2023-05-11T19:35:49.778Z,63.40
2023-05-11T19:38:21.968Z,63.48
2023-05-11T19:40:53.809Z,62.87
2023-05-11T19:43:26.116Z,62.94
2023-05-11T19:45:58.973Z,63.39
2023-05-11T19:48:31.143Z,63.14
2023-05-11T19:51:02.799Z,63.47
2023-05-11T19:53:34.817Z,63.00
2023-05-11T19:56:08.650Z,62.91
2023-05-11T19:58:41.739Z,63.03
2023-05-11T20:01:13.639Z,63.00
2023-05-11T20:03:45.586Z,64.32
2023-05-11T20:06:17.585Z,63.58
2023-05-11T20:08:49.156Z,63.03
2023-05-11T20:11:22.412Z,63.39
2023-05-11T20:13:54.586Z,63.25
2023-05-11T20:16:27.582Z,63.23
2023-05-11T20:18:59.591Z,63.20
2023-05-11T20:21:32.148Z,64.18
2023-05-11T20:24:04.223Z,63.68
2023-05-11T20:26:37.055Z,63.21
2023-05-11T20:29:09.733Z,63.19
2023-05-11T20:31:42.296Z,62.98
2023-05-11T20:34:14.191Z,64.28
2023-05-11T20:36:49.598Z,64.04
2023-05-11T20:39:22.145Z,63.55
2023-05-11T20:41:54.267Z,63.02
2023-05-11T20:44:26.386Z,62.86
2023-05-11T20:46:58.250Z,63.13
2023-05-11T20:49:38.145Z,63.50
2023-05-11T20:52:13.655Z,62.72
2023-05-11T20:54:45.186Z,62.94
2023-05-11T20:57:16.885Z,63.51
2023-05-11T21:02:22.988Z,63.23
2023-05-11T21:05:01.542Z,63.17
2023-05-11T21:07:33.134Z,63.76
2023-05-11T21:10:05.976Z,63.82
2023-05-11T21:12:37.563Z,63.47
2023-05-11T21:15:10.150Z,63.14
2023-05-11T21:17:41.803Z,63.20
2023-05-11T21:20:13.725Z,63.19
2023-05-11T21:22:45.390Z,63.30
2023-05-11T21:25:16.988Z,63.65
2023-05-11T21:27:48.522Z,63.29
2023-05-11T21:30:21.047Z,63.44
2023-05-11T21:32:52.837Z,63.43
2023-05-11T21:35:24.474Z,63.88
2023-05-11T21:37:57.605Z,63.36
2023-05-11T21:40:29.204Z,63.63
2023-05-11T21:43:01.331Z,63.95
2023-05-11T21:45:33.105Z,64.68
2023-05-11T21:48:05.208Z,64.29
2023-05-11T21:50:36.864Z,64.09
2023-05-11T21:53:09.138Z,63.83
2023-05-11T21:55:40.677Z,63.56
2023-05-11T21:58:12.721Z,63.18
2023-05-11T22:00:45.314Z,63.33
2023-05-11T22:03:17.185Z,63.15
2023-05-11T22:05:48.986Z,63.03
2023-05-11T22:08:20.534Z,62.91
2023-05-11T22:10:52.168Z,62.83
2023-05-11T22:13:23.778Z,63.36
2023-05-11T22:15:55.396Z,63.45
2023-05-11T22:18:27.430Z,63.18
2023-05-11T22:20:59.105Z,63.39
2023-05-11T22:23:31.176Z,64.05
2023-05-11T22:26:03.808Z,63.78
2023-05-11T22:28:35.981Z,63.55
2023-05-11T22:31:08.060Z,64.00
2023-05-11T22:33:39.662Z,63.17
2023-05-11T22:36:12.041Z,63.29
2023-05-11T22:38:43.703Z,63.50
2023-05-11T22:41:15.497Z,63.59
2023-05-11T22:43:47.893Z,63.73
2023-05-11T22:46:19.649Z,63.71
2023-05-11T22:48:51.328Z,63.64
2023-05-11T22:51:23.246Z,63.65
2023-05-11T22:53:55.087Z,63.82
2023-05-11T22:56:26.754Z,63.42
2023-05-11T22:59:00.128Z,63.77
2023-05-11T23:01:32.322Z,63.33
2023-05-11T23:04:03.908Z,63.33
2023-05-11T23:06:35.983Z,63.18
2023-05-11T23:09:08.037Z,63.30
2023-05-11T23:11:39.554Z,63.12
2023-05-11T23:14:11.085Z,62.82
2023-05-11T23:16:42.939Z,62.89
2023-05-11T23:19:14.547Z,63.00
2023-05-11T23:21:46.338Z,62.58
2023-05-11T23:24:18.083Z,62.60
2023-05-11T23:26:49.644Z,62.55
2023-05-11T23:29:21.227Z,62.59
2023-05-11T23:31:53.092Z,62.64
2023-05-11T23:34:24.828Z,63.17
2023-05-11T23:36:56.504Z,63.42
2023-05-11T23:39:28.006Z,64.31
2023-05-11T23:42:00.690Z,63.87
2023-05-11T23:44:32.209Z,63.38
2023-05-11T23:47:04.149Z,63.16
2023-05-11T23:49:35.999Z,63.27
2023-05-11T23:52:07.517Z,63.10
2023-05-11T23:54:39.049Z,63.06
2023-05-11T23:57:10.742Z,62.89
2023-05-11T23:59:42.281Z,64.14
